Time;durP1;ratioP1;P1;durP2;ratioP2;P2;SDS_P1;SDS_P2;PMS_P1;PMS_P2;Temp;Humidity;BMP_temperature;BMP_pressure;BME280_temperature;BME280_humidity;BME280_pressure;Samples;Min_cycle;Max_cycle;Signal;HPM_P1;HPM_P2
2021/10/14 00:00:14;;;;;;;;;34.75;31.00;;;;;10.20;64.65;102505.34;4973874;28;47161;-76
2021/10/14 00:02:39;;;;;;;;;35.75;32.00;;;;;10.19;64.42;102503.63;4972732;28;45423;-77
2021/10/14 00:05:06;;;;;;;;;37.50;31.75;;;;;10.17;64.47;102506.31;4975765;28;45259;-78
2021/10/14 00:07:31;;;;;;;;;34.00;31.50;;;;;10.15;64.54;102508.16;4972384;28;45472;-77
2021/10/14 00:09:56;;;;;;;;;36.00;30.25;;;;;10.15;64.51;102509.94;4971222;28;45890;-75
2021/10/14 00:12:22;;;;;;;;;34.25;30.50;;;;;10.10;64.69;102498.78;4971230;28;45256;-76
2021/10/14 00:14:47;;;;;;;;;37.25;33.00;;;;;10.12;64.31;102510.94;4979655;28;45243;-74
2021/10/14 00:17:12;;;;;;;;;33.75;32.25;;;;;10.06;64.66;102503.31;4985356;28;45506;-77
2021/10/14 00:19:40;;;;;;;;;34.00;28.50;;;;;10.08;64.88;102506.72;4979284;28;45599;-74
2021/10/14 00:22:05;;;;;;;;;39.75;29.50;;;;;10.06;64.90;102514.66;4976458;28;45954;-74
2021/10/14 00:24:30;;;;;;;;;37.75;28.25;;;;;10.01;64.86;102513.16;4972496;28;45358;-75
2021/10/14 00:26:57;;;;;;;;;35.25;28.75;;;;;10.02;64.83;102507.84;4975590;28;45648;-76
2021/10/14 00:29:22;;;;;;;;;34.50;29.50;;;;;10.01;64.49;102511.38;4974795;28;46170;-73
2021/10/14 00:31:48;;;;;;;;;43.75;34.00;;;;;10.01;64.72;102511.38;4972472;28;45376;-77
2021/10/14 00:34:13;;;;;;;;;36.50;31.00;;;;;10.01;64.93;102513.16;4971513;28;45288;-77
2021/10/14 00:36:38;;;;;;;;;29.75;29.75;;;;;10.01;64.69;102511.38;4971809;28;45290;-78
2021/10/14 00:39:04;;;;;;;;;40.75;31.50;;;;;10.00;64.64;102512.31;4973037;28;47039;-74
2021/10/14 00:41:30;;;;;;;;;35.25;30.75;;;;;9.96;64.64;102505.47;4973139;28;45284;-78
2021/10/14 00:44:00;;;;;;;;;37.50;30.50;;;;;9.99;64.81;102512.34;4976341;28;45461;-78
2021/10/14 00:46:25;;;;;;;;;27.00;25.50;;;;;10.01;65.19;102510.53;4976111;28;45412;-73
2021/10/14 00:48:52;;;;;;;;;30.25;28.00;;;;;10.00;64.77;102514.94;4973795;28;46028;-73
2021/10/14 00:51:17;;;;;;;;;34.50;28.75;;;;;10.00;64.22;102508.81;4967091;28;45441;-77
2021/10/14 00:53:43;;;;;;;;;30.50;28.00;;;;;9.99;64.84;102507.97;4985015;28;45552;-78
2021/10/14 00:56:09;;;;;;;;;40.00;32.25;;;;;9.96;64.91;102508.09;4963151;28;45741;-78
2021/10/14 00:58:35;;;;;;;;;37.25;31.75;;;;;9.96;65.10;102508.09;4975033;28;46125;-76
2021/10/14 01:01:03;;;;;;;;;42.75;35.50;;;;;9.96;64.76;102502.84;4973687;28;45351;-75
2021/10/14 01:03:29;;;;;;;;;35.00;32.50;;;;;9.93;64.75;102502.97;4974642;28;45263;-74
2021/10/14 01:05:55;;;;;;;;;32.25;29.25;;;;;9.89;65.16;102493.53;4965249;28;45683;-74
2021/10/14 01:08:20;;;;;;;;;35.00;28.00;;;;;9.88;65.09;102500.53;4984595;28;46104;-73
2021/10/14 01:10:46;;;;;;;;;39.25;32.75;;;;;9.89;65.20;102496.16;4975512;28;45450;-76
2021/10/14 01:13:12;;;;;;;;;37.25;34.25;;;;;9.89;65.28;102480.41;4973910;28;45331;-74
2021/10/14 01:15:40;;;;;;;;;39.00;32.50;;;;;9.87;65.68;102484.88;4978354;28;45564;-76
2021/10/14 01:18:07;;;;;;;;;41.00;32.00;;;;;9.88;65.87;102476.91;4975784;28;47104;-77
2021/10/14 01:20:33;;;;;;;;;36.50;30.50;;;;;9.89;65.66;102486.50;4960804;28;45352;-79
2021/10/14 01:22:58;;;;;;;;;32.00;28.50;;;;;9.88;65.66;102474.28;4973669;28;45579;-77
2021/10/14 01:25:25;;;;;;;;;42.50;34.50;;;;;9.90;65.68;102477.72;4982930;28;45310;-78
2021/10/14 01:27:51;;;;;;;;;44.25;37.25;;;;;9.93;66.06;102481.97;4983162;28;46558;-76
2021/10/14 01:30:17;;;;;;;;;55.00;40.75;;;;;9.93;65.73;102481.97;4985026;28;46152;-75
2021/10/14 01:32:44;;;;;;;;;51.50;35.50;;;;;9.94;65.88;102478.44;4984302;28;45475;-76
2021/10/14 01:35:10;;;;;;;;;54.00;40.75;;;;;9.95;65.73;102474.91;4989704;28;45331;-79
2021/10/14 01:37:35;;;;;;;;;49.50;37.75;;;;;9.96;65.88;102468.72;4975355;28;46138;-78
2021/10/14 01:40:02;;;;;;;;;44.50;37.00;;;;;9.97;65.80;102478.31;4975453;28;45677;-78
2021/10/14 01:42:28;;;;;;;;;43.25;37.25;;;;;9.98;65.93;102474.75;4974021;28;45408;-79
2021/10/14 01:44:53;;;;;;;;;47.75;35.75;;;;;9.94;65.66;102467.94;4972782;28;45558;-77
2021/10/14 01:47:20;;;;;;;;;39.75;34.00;;;;;9.96;65.87;102466.09;4967427;28;45996;-73
2021/10/14 01:49:46;;;;;;;;;51.00;40.00;;;;;9.95;65.71;102467.03;4974748;28;45397;-79
2021/10/14 01:52:12;;;;;;;;;41.50;36.50;;;;;9.95;66.06;102467.03;4971845;28;45450;-77
2021/10/14 01:54:37;;;;;;;;;45.25;37.75;;;;;9.95;66.02;102464.41;4967489;28;45335;-78
2021/10/14 01:57:02;;;;;;;;;47.00;38.00;;;;;9.93;65.87;102468.84;4970281;28;46171;-78
2021/10/14 01:59:28;;;;;;;;;44.75;37.75;;;;;9.96;65.57;102467.88;4975466;28;45307;-76
2021/10/14 02:01:53;;;;;;;;;59.25;41.75;;;;;9.94;66.07;102462.69;4975386;28;45295;-76
2021/10/14 02:04:20;;;;;;;;;50.50;40.25;;;;;9.93;66.21;102474.09;4974832;28;47884;-78
2021/10/14 02:06:45;;;;;;;;;40.75;36.25;;;;;9.87;65.54;102461.25;4974938;28;47226;-76
2021/10/14 02:09:12;;;;;;;;;45.25;36.75;;;;;9.88;66.06;102457.69;4944794;28;45364;-77
2021/10/14 02:11:37;;;;;;;;;40.50;34.50;;;;;9.88;65.99;102458.53;4962740;28;45422;-74
2021/10/14 02:14:03;;;;;;;;;32.25;30.75;;;;;9.83;65.71;102455.28;4979533;28;45381;-68
2021/10/14 02:16:28;;;;;;;;;40.25;33.75;;;;;9.76;65.66;102453.84;4976039;28;45995;-67
2021/10/14 02:18:53;;;;;;;;;36.75;32.75;;;;;9.68;65.91;102456.78;4973127;28;45429;-70
2021/10/14 02:21:19;;;;;;;;;42.75;34.00;;;;;9.60;66.06;102460.66;4972719;28;45462;-66
2021/10/14 02:23:44;;;;;;;;;34.25;31.00;;;;;9.53;66.49;102453.03;4961777;28;45549;-66
2021/10/14 02:26:10;;;;;;;;;39.75;28.00;;;;;9.43;66.65;102443.84;4954683;28;47264;-66
2021/10/14 02:28:35;;;;;;;;;33.00;31.00;;;;;9.38;66.40;102438.81;4973172;28;45508;-65
2021/10/14 02:31:00;;;;;;;;;36.25;31.50;;;;;9.33;66.23;102442.56;4974735;28;45562;-66
2021/10/14 02:33:26;;;;;;;;;34.75;30.00;;;;;9.25;66.46;102443.72;4965737;28;45538;-65
2021/10/14 02:35:51;;;;;;;;;46.75;35.50;;;;;9.19;66.87;102449.19;4977097;28;45506;-66
2021/10/14 02:38:16;;;;;;;;;40.25;35.00;;;;;9.15;66.78;102446.78;4976219;28;45451;-66
2021/10/14 02:40:42;;;;;;;;;37.00;31.00;;;;;9.11;67.15;102442.56;4971611;28;45499;-67
2021/10/14 02:43:07;;;;;;;;;32.75;30.00;;;;;9.09;67.07;102447.88;4953296;28;45501;-66
2021/10/14 02:45:33;;;;;;;;;45.50;32.50;;;;;9.04;66.80;102445.44;4969405;28;46209;-65
2021/10/14 02:47:59;;;;;;;;;37.75;31.75;;;;;9.03;67.25;102446.34;4972966;28;45515;-65
2021/10/14 02:50:24;;;;;;;;;37.75;30.75;;;;;8.99;67.24;102452.66;4961967;28;45481;-67
2021/10/14 02:52:50;;;;;;;;;34.50;30.00;;;;;8.96;67.60;102452.75;4974046;28;45775;-67
2021/10/14 02:55:15;;;;;;;;;36.25;32.00;;;;;8.93;67.51;102447.63;4972614;28;45956;-65
2021/10/14 02:57:40;;;;;;;;;38.75;27.25;;;;;8.90;67.64;102447.78;4971760;28;45480;-67
2021/10/14 03:00:07;;;;;;;;;28.75;25.00;;;;;8.89;67.81;102448.69;4972573;28;54034;-65
2021/10/14 03:02:32;;;;;;;;;35.00;30.75;;;;;8.84;67.73;102442.75;4958333;28;45348;-67
2021/10/14 03:04:59;;;;;;;;;38.75;34.00;;;;;8.81;68.19;102440.25;4974810;28;45741;-66
2021/10/14 03:07:24;;;;;;;;;41.25;35.00;;;;;8.80;67.85;102446.44;4971291;28;45535;-66
2021/10/14 03:09:49;;;;;;;;;35.75;30.00;;;;;8.76;67.90;102443.06;4972223;28;45262;-66
2021/10/14 03:12:15;;;;;;;;;39.25;33.75;;;;;8.72;68.32;102439.72;4968579;28;45538;-66
2021/10/14 03:14:40;;;;;;;;;40.25;32.25;;;;;8.69;68.45;102445.09;4954921;28;47185;-67
2021/10/14 03:17:05;;;;;;;;;46.00;29.75;;;;;8.71;68.34;102448.47;4975405;28;45441;-67
2021/10/14 03:19:31;;;;;;;;;38.75;29.25;;;;;8.68;68.36;102438.13;4972270;28;54352;-66
2021/10/14 03:21:56;;;;;;;;;37.75;32.00;;;;;8.70;68.28;102445.91;4974844;28;45349;-66
2021/10/14 03:24:21;;;;;;;;;38.00;30.75;;;;;8.67;68.29;102446.88;4972259;28;45350;-67
2021/10/14 03:26:47;;;;;;;;;44.00;32.75;;;;;8.67;68.74;102446.88;4972381;28;45647;-66
2021/10/14 03:29:12;;;;;;;;;38.75;32.00;;;;;8.67;69.01;102451.28;4974939;28;45454;-66
2021/10/14 03:31:37;;;;;;;;;39.25;33.00;;;;;8.66;68.67;102446.97;4955454;28;45363;-66
2021/10/14 03:34:03;;;;;;;;;44.50;35.00;;;;;8.65;68.74;102443.47;4971335;28;46148;-68
2021/10/14 03:36:28;;;;;;;;;40.25;33.75;;;;;8.64;68.75;102447.03;4971331;28;45318;-67
2021/10/14 03:38:54;;;;;;;;;46.75;35.50;;;;;8.63;68.86;102450.53;4971599;28;45593;-66
2021/10/14 03:41:19;;;;;;;;;36.75;34.25;;;;;8.61;68.51;102454.13;4974774;28;45725;-67
2021/10/14 03:43:44;;;;;;;;;33.50;31.75;;;;;8.62;68.54;102451.44;4972251;28;47035;-66
2021/10/14 03:46:10;;;;;;;;;38.75;33.50;;;;;8.60;68.53;102455.88;4971609;28;45607;-67
2021/10/14 03:48:35;;;;;;;;;44.50;33.75;;;;;8.56;68.80;102452.56;4971572;28;45240;-65
2021/10/14 03:51:01;;;;;;;;;44.50;36.25;;;;;8.59;68.93;102456.81;4954119;28;45634;-66
2021/10/14 03:53:26;;;;;;;;;31.75;29.25;;;;;8.56;68.94;102451.69;4973630;28;50329;-67
2021/10/14 03:55:51;;;;;;;;;41.00;34.50;;;;;8.55;68.91;102447.34;4973596;28;45603;-66
2021/10/14 03:58:17;;;;;;;;;38.25;34.00;;;;;8.54;69.05;102451.75;4972753;28;45843;-66
2021/10/14 04:00:42;;;;;;;;;41.25;35.50;;;;;8.53;69.14;102455.28;4972756;28;45501;-65
2021/10/14 04:03:07;;;;;;;;;26.25;22.50;;;;;8.52;69.25;102452.72;4972302;28;45441;-66
2021/10/14 04:05:33;;;;;;;;;31.50;28.75;;;;;8.53;68.91;102455.28;4973210;28;45521;-64
2021/10/14 04:07:58;;;;;;;;;34.50;27.00;;;;;8.54;69.33;102456.16;4973539;28;45397;-66
2021/10/14 04:10:23;;;;;;;;;32.00;29.25;;;;;8.54;69.17;102456.16;4971273;28;45451;-65
2021/10/14 04:12:49;;;;;;;;;36.75;32.75;;;;;8.53;68.76;102451.81;4953426;28;47182;-67
2021/10/14 04:15:16;;;;;;;;;27.75;26.75;;;;;8.52;68.74;102460.56;4971358;28;45536;-65
2021/10/14 04:17:41;;;;;;;;;37.50;28.00;;;;;8.48;68.63;102456.38;4972303;28;45572;-67
2021/10/14 04:20:08;;;;;;;;;33.25;30.25;;;;;8.43;68.80;102460.00;4967009;28;45429;-66
2021/10/14 04:22:33;;;;;;;;;37.00;31.00;;;;;8.42;69.10;102463.50;4970338;28;46438;-67
2021/10/14 04:24:59;;;;;;;;;37.75;31.50;;;;;8.39;69.05;102463.63;4976912;28;45377;-66
2021/10/14 04:27:24;;;;;;;;;39.50;32.75;;;;;8.40;69.05;102467.09;4978997;28;45417;-66
2021/10/14 04:29:49;;;;;;;;;33.50;30.50;;;;;8.40;69.23;102464.47;4980762;28;45498;-65
2021/10/14 04:32:15;;;;;;;;;36.25;35.00;;;;;8.40;69.26;102464.47;4984745;28;45404;-66
2021/10/14 04:34:40;;;;;;;;;38.00;33.75;;;;;8.40;69.50;102465.31;4983665;28;45292;-66
2021/10/14 04:37:07;;;;;;;;;39.50;31.50;;;;;8.39;69.23;102462.75;4984465;28;45426;-68
2021/10/14 04:39:33;;;;;;;;;34.25;27.00;;;;;8.36;69.06;102458.50;4979912;28;45522;-64
2021/10/14 04:41:59;;;;;;;;;43.75;33.50;;;;;8.36;69.73;102463.72;4974378;28;45415;-66
2021/10/14 04:44:24;;;;;;;;;32.75;30.75;;;;;8.39;69.61;102468.00;4976689;28;45441;-66
2021/10/14 04:46:49;;;;;;;;;33.25;29.00;;;;;8.39;69.02;102463.63;4970648;28;45593;-66
2021/10/14 04:49:15;;;;;;;;;31.75;28.25;;;;;8.39;69.09;102457.53;4975905;28;45434;-66
2021/10/14 04:51:40;;;;;;;;;28.75;27.25;;;;;8.41;69.02;102456.56;4973918;28;45932;-67
2021/10/14 04:54:06;;;;;;;;;30.75;25.75;;;;;8.44;69.13;102466.06;4974067;28;45388;-66
2021/10/14 04:56:31;;;;;;;;;27.00;24.00;;;;;8.46;69.09;102466.03;4976503;28;45271;-66
2021/10/14 04:58:56;;;;;;;;;37.50;31.00;;;;;8.46;68.93;102463.41;4976376;28;45564;-68
2021/10/14 05:01:22;;;;;;;;;40.75;29.75;;;;;8.46;69.07;102468.66;4974375;28;45518;-67
2021/10/14 05:03:47;;;;;;;;;35.75;33.75;;;;;8.45;68.87;102472.19;4975127;28;45432;-68
2021/10/14 05:06:13;;;;;;;;;34.50;29.25;;;;;8.44;68.69;102471.31;4974707;28;45473;-65
2021/10/14 05:08:38;;;;;;;;;36.00;34.25;;;;;8.45;68.60;102466.94;4976699;28;45290;-64
2021/10/14 05:11:09;;;;;;;;;43.00;35.50;;;;;8.41;68.63;102467.03;4956100;28;46296;-68
2021/10/14 05:13:34;;;;;;;;;36.25;31.75;;;;;8.40;69.01;102464.47;4976375;28;45563;-66
2021/10/14 05:16:00;;;;;;;;;34.50;32.25;;;;;8.38;68.64;102467.16;4977836;28;45559;-67
2021/10/14 05:18:26;;;;;;;;;37.00;32.50;;;;;8.38;68.68;102477.63;4976924;28;45404;-66
2021/10/14 05:20:51;;;;;;;;;41.50;32.25;;;;;8.36;68.71;102482.06;4976410;28;47087;-66
2021/10/14 05:23:17;;;;;;;;;41.50;33.25;;;;;8.35;69.07;102482.97;4977359;28;45532;-69
2021/10/14 05:25:42;;;;;;;;;38.50;30.00;;;;;8.31;68.71;102470.06;4974076;28;45364;-67
2021/10/14 05:28:07;;;;;;;;;39.25;32.00;;;;;8.34;68.46;102478.66;4973930;28;45402;-65
2021/10/14 05:30:33;;;;;;;;;32.25;27.50;;;;;8.29;68.88;102477.09;4971844;28;47835;-67
2021/10/14 05:32:58;;;;;;;;;35.75;29.25;;;;;8.31;68.47;102484.00;4975248;28;45511;-66
2021/10/14 05:35:23;;;;;;;;;32.50;28.75;;;;;8.26;68.57;102475.44;4976009;28;45410;-66
2021/10/14 05:37:49;;;;;;;;;36.25;30.25;;;;;8.27;68.79;102474.56;4975188;28;45712;-66
2021/10/14 05:40:14;;;;;;;;;28.75;23.00;;;;;8.29;68.42;102477.09;4972854;28;45910;-68
2021/10/14 05:42:39;;;;;;;;;26.00;23.25;;;;;8.29;69.03;102472.75;4973115;28;45299;-64
2021/10/14 05:45:05;;;;;;;;;28.25;26.00;;;;;8.29;68.77;102477.97;4972691;28;45440;-66
2021/10/14 05:47:31;;;;;;;;;31.75;28.50;;;;;8.29;68.68;102477.09;4976176;28;45515;-65
2021/10/14 05:49:56;;;;;;;;;46.50;34.75;;;;;8.27;68.62;102474.56;4975177;28;45840;-66
2021/10/14 05:52:21;;;;;;;;;37.50;33.25;;;;;8.26;68.76;102478.94;4975885;28;45449;-66
2021/10/14 05:54:47;;;;;;;;;38.00;28.00;;;;;8.24;68.84;102479.91;4969809;28;45445;-66
2021/10/14 05:57:13;;;;;;;;;38.00;31.00;;;;;8.24;69.08;102475.50;4956895;28;45475;-65
2021/10/14 05:59:39;;;;;;;;;36.50;31.00;;;;;8.23;68.98;102472.97;4975388;28;45382;-67
2021/10/14 06:02:04;;;;;;;;;30.25;22.00;;;;;8.20;68.74;102465.19;4949812;28;45456;-67
2021/10/14 06:04:29;;;;;;;;;35.75;29.75;;;;;8.20;68.94;102470.44;4972737;28;45444;-65
2021/10/14 06:06:55;;;;;;;;;68.25;52.50;;;;;8.19;69.27;102464.34;4966866;28;45286;-67
2021/10/14 06:09:20;;;;;;;;;30.50;27.25;;;;;8.22;68.95;102471.25;4961045;28;48222;-67
2021/10/14 06:11:45;;;;;;;;;8.25;6.50;;;;;8.22;68.89;102474.69;4958990;28;45617;-68
2021/10/14 06:14:11;;;;;;;;;32.25;28.25;;;;;8.21;69.13;102466.91;4977395;28;45421;-66
2021/10/14 06:16:36;;;;;;;;;39.75;31.75;;;;;8.20;68.96;102468.69;4972226;28;45429;-65
2021/10/14 06:19:02;;;;;;;;;40.50;33.00;;;;;8.19;68.57;102471.38;4972649;28;45409;-66
2021/10/14 06:21:27;;;;;;;;;41.00;34.50;;;;;8.16;68.56;102467.09;4972487;28;45378;-66
2021/10/14 06:23:52;;;;;;;;;42.50;33.25;;;;;8.16;68.96;102466.22;4972527;28;45988;-67
2021/10/14 06:26:18;;;;;;;;;40.25;35.25;;;;;8.20;68.97;102473.91;4970379;28;45318;-66
2021/10/14 06:28:43;;;;;;;;;36.25;32.00;;;;;8.22;68.79;102466.00;4974099;28;52192;-65
2021/10/14 06:31:08;;;;;;;;;39.50;29.75;;;;;8.22;69.02;102460.78;4972610;28;45525;-66
2021/10/14 06:33:34;;;;;;;;;33.25;29.00;;;;;8.29;68.80;102461.41;4972571;28;45777;-67
2021/10/14 06:35:59;;;;;;;;;39.75;31.25;;;;;8.32;68.76;102472.63;4972311;28;45301;-66
2021/10/14 06:38:25;;;;;;;;;32.25;29.50;;;;;8.34;68.82;102476.03;4957550;28;47076;-71
2021/10/14 06:40:50;;;;;;;;;37.00;32.25;;;;;8.37;68.70;102475.91;4975978;28;45383;-67
2021/10/14 06:43:17;;;;;;;;;47.75;35.75;;;;;8.38;68.59;102466.28;4971040;28;45553;-67
2021/10/14 06:45:43;;;;;;;;;41.75;37.00;;;;;8.41;68.63;102467.03;4972858;28;45443;-67
2021/10/14 06:48:08;;;;;;;;;39.50;31.75;;;;;8.42;68.62;102468.75;4970790;28;46976;-66
2021/10/14 06:50:34;;;;;;;;;40.75;33.25;;;;;8.47;68.45;102471.25;4974921;28;45511;-66
2021/10/14 06:53:00;;;;;;;;;32.50;29.00;;;;;8.49;68.43;102465.94;4975121;28;45480;-66
2021/10/14 06:55:26;;;;;;;;;37.00;32.00;;;;;8.52;68.72;102471.06;4972409;28;45497;-66
2021/10/14 06:57:51;;;;;;;;;43.75;30.75;;;;;8.50;68.33;102465.03;4972067;28;45525;-67
2021/10/14 07:00:22;;;;;;;;;49.50;37.25;;;;;8.53;68.66;102460.50;4972870;28;45381;-66
2021/10/14 07:02:47;;;;;;;;;38.00;32.75;;;;;8.60;68.48;102474.22;4964798;28;45499;-67
2021/10/14 07:05:12;;;;;;;;;37.50;33.00;;;;;8.61;68.69;102462.84;4976532;28;45211;-66
2021/10/14 07:07:38;;;;;;;;;49.00;37.00;;;;;8.68;68.48;102474.81;4969857;28;45723;-67
2021/10/14 07:10:04;;;;;;;;;42.75;34.75;;;;;8.63;68.64;102461.03;4976340;28;45386;-67
2021/10/14 07:12:29;;;;;;;;;40.50;35.75;;;;;8.74;68.39;102466.72;4972697;28;45457;-66
2021/10/14 07:14:55;;;;;;;;;43.50;38.00;;;;;8.81;68.40;102471.69;4961358;28;45475;-66
2021/10/14 07:17:21;;;;;;;;;40.00;34.25;;;;;8.84;68.39;102474.22;4958059;28;47299;-65
2021/10/14 07:19:47;;;;;;;;;28.75;20.00;;;;;8.90;68.47;102473.97;4974567;28;45549;-70
2021/10/14 07:22:12;;;;;;;;;40.00;34.25;;;;;8.96;68.12;102481.59;4972495;28;45352;-66
2021/10/14 07:24:38;;;;;;;;;44.75;38.25;;;;;9.01;68.11;102471.78;4968186;28;45466;-65
2021/10/14 07:27:05;;;;;;;;;50.25;39.25;;;;;9.06;67.90;102464.56;4974214;28;47291;-67
2021/10/14 07:29:30;;;;;;;;;35.00;33.50;;;;;9.13;68.00;102469.56;4973892;28;45720;-65
2021/10/14 07:31:56;;;;;;;;;40.75;36.50;;;;;9.18;67.68;102472.88;4975496;28;45292;-65
2021/10/14 07:34:21;;;;;;;;;48.75;36.25;;;;;9.21;67.63;102470.13;4974131;28;45468;-67
2021/10/14 07:36:47;;;;;;;;;42.25;35.25;;;;;9.20;67.57;102460.56;4954066;28;46027;-66
2021/10/14 07:39:12;;;;;;;;;45.25;37.00;;;;;9.27;67.61;102469.88;4969343;28;45912;-68
2021/10/14 07:41:37;;;;;;;;;40.00;33.25;;;;;9.32;67.56;102472.31;4972735;28;45736;-68
2021/10/14 07:44:03;;;;;;;;;42.25;36.50;;;;;9.36;67.28;102472.09;4974837;28;45443;-67
2021/10/14 07:46:28;;;;;;;;;47.25;36.00;;;;;9.38;67.30;102462.41;4971645;28;45947;-65
2021/10/14 07:48:53;;;;;;;;;51.50;37.00;;;;;9.45;67.31;102470.03;4972087;28;45435;-66
2021/10/14 07:51:19;;;;;;;;;48.75;38.00;;;;;9.45;67.42;102464.78;4972742;28;45362;-67
2021/10/14 07:53:44;;;;;;;;;50.00;39.50;;;;;9.52;67.02;102456.59;4974301;28;45993;-67
2021/10/14 07:56:10;;;;;;;;;53.25;38.75;;;;;9.54;67.36;102456.53;4976500;28;45488;-67
2021/10/14 07:58:35;;;;;;;;;45.75;37.50;;;;;9.60;66.90;102461.53;4973077;28;45503;-67
2021/10/14 08:01:01;;;;;;;;;52.25;40.00;;;;;9.65;66.93;102458.69;4970729;28;45386;-68
2021/10/14 08:03:26;;;;;;;;;51.00;37.25;;;;;9.71;66.90;102466.31;4975517;28;45592;-66
2021/10/14 08:05:51;;;;;;;;;48.25;39.00;;;;;9.79;67.17;102465.97;4962978;28;46146;-65
2021/10/14 08:08:17;;;;;;;;;63.00;49.50;;;;;9.82;67.30;102465.84;4979992;28;45401;-67
2021/10/14 08:10:42;;;;;;;;;47.50;36.25;;;;;9.84;66.43;102458.75;4976843;28;45366;-66
2021/10/14 08:13:15;;;;;;;;;40.50;34.25;;;;;9.92;66.87;102464.53;4972858;28;45312;-68
2021/10/14 08:15:44;;;;;;;;;50.25;40.25;;;;;9.93;66.93;102460.97;4972372;28;47488;-67
2021/10/14 08:18:09;;;;;;;;;48.25;36.25;;;;;9.99;66.42;102460.72;4975975;28;45311;-67
2021/10/14 08:20:35;;;;;;;;;45.00;35.50;;;;;10.05;66.67;102459.59;4961687;28;45371;-66
2021/10/14 08:23:01;;;;;;;;;50.75;40.25;;;;;10.11;66.70;102458.47;4978342;28;45843;-67
2021/10/14 08:25:27;;;;;;;;;51.00;39.25;;;;;10.16;66.88;102457.34;4980193;28;46141;-67
2021/10/14 08:27:52;;;;;;;;;55.75;38.50;;;;;10.22;66.68;102457.06;4980550;28;45526;-67
2021/10/14 08:30:17;;;;;;;;;41.00;35.25;;;;;10.29;66.30;102472.53;4972686;28;45565;-67
2021/10/14 08:32:43;;;;;;;;;48.00;37.50;;;;;10.36;66.70;102468.75;4972338;28;45314;-65
2021/10/14 08:35:12;;;;;;;;;35.75;29.50;;;;;10.43;66.21;102454.44;4975173;28;45490;-67
2021/10/14 08:37:38;;;;;;;;;48.75;39.00;;;;;10.59;66.03;102457.19;4971659;28;45482;-65
2021/10/14 08:40:05;;;;;;;;;54.00;38.75;;;;;10.68;66.18;102455.91;4971898;28;45386;-67
2021/10/14 08:42:30;;;;;;;;;44.00;34.00;;;;;10.77;65.75;102462.47;4972428;28;45306;-66
2021/10/14 08:45:00;;;;;;;;;39.50;34.00;;;;;10.83;65.36;102462.19;4971189;28;46180;-67
2021/10/14 08:47:26;;;;;;;;;30.75;29.75;;;;;10.89;65.28;102464.53;4973843;28;45408;-67
2021/10/14 08:49:51;;;;;;;;;41.25;36.00;;;;;10.94;65.10;102459.91;4972595;28;45358;-66
2021/10/14 08:52:17;;;;;;;;;35.00;30.00;;;;;11.00;64.60;102459.63;4976103;28;45395;-66
2021/10/14 08:54:42;;;;;;;;;41.25;33.25;;;;;11.09;64.46;102452.22;4976922;28;45370;-65
2021/10/14 08:57:08;;;;;;;;;43.50;35.25;;;;;11.17;64.53;102452.66;4973860;28;45457;-67
2021/10/14 08:59:34;;;;;;;;;43.00;34.00;;;;;11.27;64.11;102453.91;4976017;28;46295;-66
2021/10/14 09:02:14;;;;;;;;;28.00;25.00;;;;;11.35;63.53;102459.69;4957339;28;45556;-67
2021/10/14 09:05:03;;;;;;;;;35.67;32.33;;;;;11.43;63.90;102455.78;4973626;28;47033;-67
2021/10/14 09:07:31;;;;;;;;;25.33;23.00;;;;;11.50;63.78;102449.31;4974343;28;49600;-66
2021/10/14 09:10:01;;;;;;;;;36.75;31.50;;;;;11.60;63.29;102455.81;4974775;28;45571;-67
2021/10/14 09:12:36;;;;;;;;;35.00;32.00;;;;;11.70;63.16;102459.66;4974649;28;45466;-67
2021/10/14 09:15:05;;;;;;;;;32.00;30.00;;;;;11.81;63.39;102445.09;4972381;28;45497;-67
2021/10/14 09:17:37;;;;;;;;;35.67;28.33;;;;;11.90;62.82;102447.25;4972534;28;45600;-67
2021/10/14 09:20:20;;;;;;;;;32.00;29.00;;;;;11.99;62.72;102449.41;4975101;28;45485;-67
2021/10/14 09:23:17;;;;;;;;;38.00;31.00;;;;;12.08;62.26;102434.06;4976104;28;45380;-66
2021/10/14 09:25:53;;;;;;;;;31.67;27.00;;;;;12.18;61.60;102438.75;4973869;28;46066;-66
2021/10/14 09:28:26;;;;;;;;;24.33;22.00;;;;;12.26;61.64;102435.72;4972913;28;45369;-66
2021/10/14 09:31:01;;;;;;;;;37.33;32.00;;;;;12.32;61.84;102438.00;4966771;28;48368;-65
2021/10/14 09:33:44;;;;;;;;;26.00;24.00;;;;;12.43;61.69;102428.66;4973783;28;45569;-67
2021/10/14 09:36:13;;;;;;;;;36.00;31.33;;;;;12.51;61.37;102431.75;4973777;28;46441;-66
2021/10/14 09:38:40;;;;;;;;;37.33;30.00;;;;;12.60;61.38;102427.72;4974982;28;45425;-66
2021/10/14 09:41:08;;;;;;;;;18.33;14.67;;;;;12.68;60.34;102434.28;4955758;28;45338;-67
2021/10/14 09:43:34;;;;;;;;;21.00;19.33;;;;;12.76;60.53;102427.72;4972782;28;53701;-65
2021/10/14 09:45:59;;;;;;;;;23.33;19.00;;;;;12.83;60.03;102426.44;4973324;28;45496;-67
2021/10/14 09:48:25;;;;;;;;;21.00;19.00;;;;;12.93;60.18;102424.13;4975601;28;45362;-66
2021/10/14 09:50:53;;;;;;;;;41.67;36.00;;;;;13.00;59.50;102426.34;4973460;28;45299;-67
2021/10/14 09:53:20;;;;;;;;;118.67;103.00;;;;;13.11;58.55;102419.59;4960984;28;45426;-67
2021/10/14 09:55:48;;;;;;;;;16.00;12.33;;;;;13.24;57.56;102428.47;4975612;28;46173;-66
2021/10/14 09:58:14;;;;;;;;;14.33;13.33;;;;;13.33;57.56;102414.72;4971382;28;45653;-67
2021/10/14 10:00:41;;;;;;;;;12.00;11.00;;;;;13.45;56.41;102415.00;4973576;28;45444;-66
2021/10/14 10:03:09;;;;;;;;;11.33;10.00;;;;;13.59;56.44;102411.53;4973459;28;45367;-66
2021/10/14 10:05:37;;;;;;;;;13.00;12.33;;;;;13.67;56.31;102398.69;4958013;28;47198;-66
2021/10/14 10:08:08;;;;;;;;;9.00;9.00;;;;;13.76;56.46;102407.88;4975683;28;45470;-68
2021/10/14 10:10:37;;;;;;;;;11.33;10.00;;;;;13.86;55.22;102401.06;4972712;28;45457;-66
2021/10/14 10:13:03;;;;;;;;;11.67;10.67;;;;;13.97;54.86;102403.03;4950360;28;45673;-67
2021/10/14 10:15:45;;;;;;;;;13.33;12.33;;;;;14.09;55.19;102398.78;4963049;28;46533;-66
2021/10/14 10:18:42;;;;;;;;;14.33;11.00;;;;;14.20;54.17;102391.03;4973285;28;45662;-67
2021/10/14 10:21:29;;;;;;;;;15.33;13.67;;;;;14.31;55.80;102387.69;4931253;28;45591;-68
2021/10/14 10:23:54;;;;;;;;;20.67;14.33;;;;;14.43;53.59;102392.22;4920453;28;45582;-65
2021/10/14 10:26:37;;;;;;;;;13.00;12.00;;;;;14.54;54.31;102386.22;4935063;28;45483;-67
2021/10/14 10:29:15;;;;;;;;;16.33;13.00;;;;;14.59;54.83;102381.50;4934515;28;45441;-66
2021/10/14 10:31:53;;;;;;;;;15.00;14.00;;;;;14.61;54.89;102374.31;4933911;28;45480;-67
2021/10/14 10:37:15;;;;;;;;;17.67;15.33;;;;;14.68;54.86;102367.69;4934308;28;45374;-66
2021/10/14 10:40:21;;;;;;;;;14.33;13.33;;;;;14.79;54.78;102366.13;4934395;28;48257;-67
2021/10/14 10:42:53;;;;;;;;;14.00;11.67;;;;;14.84;53.77;102359.63;4937183;28;45362;-67
2021/10/14 10:45:24;;;;;;;;;12.67;11.33;;;;;14.89;53.85;102361.94;4939405;28;45672;-68
2021/10/14 10:47:55;;;;;;;;;18.33;17.67;;;;;14.99;54.36;102364.81;4936024;28;46155;-68
2021/10/14 10:50:41;;;;;;;;;15.33;11.00;;;;;15.06;53.49;102359.97;4931885;28;45275;-68
2021/10/14 10:53:41;;;;;;;;;13.33;11.00;;;;;15.15;52.05;102356.69;4935005;28;45505;-66
2021/10/14 10:56:08;;;;;;;;;7.00;5.67;;;;;15.22;52.56;102357.97;4925805;28;45581;-68
2021/10/14 10:58:49;;;;;;;;;3.67;3.67;;;;;15.24;52.37;102350.75;4971712;28;46130;-67
2021/10/14 11:01:17;;;;;;;;;5.00;4.00;;;;;15.24;51.62;102348.13;4973214;28;45489;-68
2021/10/14 11:03:53;;;;;;;;;6.00;4.00;;;;;15.28;52.05;102349.63;4973106;28;45432;-67
2021/10/14 11:06:19;;;;;;;;;6.67;4.00;;;;;15.27;51.70;102344.41;4972545;28;45413;-68
2021/10/14 11:08:44;;;;;;;;;4.67;4.67;;;;;15.25;51.77;102341.03;4973707;28;46857;-67
2021/10/14 11:11:18;;;;;;;;;5.00;3.00;;;;;15.19;50.37;102331.69;4973543;28;45230;-69
2021/10/14 11:13:45;;;;;;;;;8.00;5.33;;;;;15.27;51.42;102337.34;4974807;28;45407;-67
2021/10/14 11:16:12;;;;;;;;;4.67;4.00;;;;;15.29;51.28;102332.75;4972792;28;45732;-69